Time;durP1;ratioP1;P1;durP2;ratioP2;P2;SDS_P1;SDS_P2;PMS_P1;PMS_P2;Temp;Humidity;BMP_temperature;BMP_pressure;BME280_temperature;BME280_humidity;BME280_pressure;Samples;Min_cycle;Max_cycle;Signal;HPM_P1;HPM_P2
2022/04/19 03:53:43;;;;;;;8.73;5.97;;;;;;;5.16;67.60;99956.16;6567734;27;20068;-88
2022/04/19 03:56:49;;;;;;;7.43;5.30;;;;;;;5.17;68.23;99961.34;6564863;26;33945;-89
2022/04/19 03:59:57;;;;;;;5.12;4.62;;;;;;;5.10;68.23;99965.63;6603531;26;34315;-88
2022/04/19 04:03:01;;;;;;;5.37;4.82;;;;;;;5.15;68.27;99971.34;6601983;26;34133;-88
2022/04/19 04:06:05;;;;;;;6.68;5.35;;;;;;;5.17;67.69;99960.50;6601894;26;34169;-87
2022/04/19 04:09:07;;;;;;;5.25;4.65;;;;;;;5.17;67.07;99969.34;6616004;27;34125;-87
2022/04/19 04:12:14;;;;;;;5.15;4.70;;;;;;;5.13;66.90;99969.81;6615138;26;34856;-88
2022/04/19 04:15:17;;;;;;;7.03;5.82;;;;;;;5.13;66.77;99970.66;6580771;26;32213;-88
2022/04/19 04:18:20;;;;;;;6.47;5.10;;;;;;;5.10;66.95;99968.28;6609083;26;33962;-88
2022/04/19 04:21:24;;;;;;;5.68;5.07;;;;;;;5.11;67.05;99967.28;6587180;26;34598;-89
2022/04/19 04:24:27;;;;;;;6.25;5.12;;;;;;;5.14;67.35;99963.47;6611822;26;34661;-88
2022/04/19 04:27:30;;;;;;;6.80;4.43;;;;;;;5.26;67.47;99964.09;6604707;26;34164;-89
2022/04/19 04:30:34;;;;;;;5.32;4.18;;;;;;;5.29;66.69;99971.78;6607438;26;33552;-89
2022/04/19 04:33:40;;;;;;;5.60;4.78;;;;;;;5.30;66.56;99976.97;6604880;26;33779;-89
2022/04/19 04:36:43;;;;;;;6.60;4.57;;;;;;;5.36;66.59;99973.69;6608848;26;33524;-89
2022/04/19 04:39:46;;;;;;;5.82;4.78;;;;;;;5.36;65.44;99971.03;6627853;26;34180;-89
2022/04/19 04:42:52;;;;;;;5.97;4.60;;;;;;;5.33;64.58;99974.00;6629359;26;33110;-89
2022/04/19 04:52:40;;;;;;;6.97;4.70;;;;;;;5.49;63.47;99978.63;6607776;26;33983;-87
2022/04/19 04:59:32;;;;;;;6.37;4.43;;;;;;;5.42;63.17;99983.75;6609575;26;32565;-87
2022/04/19 05:02:35;;;;;;;6.85;4.55;;;;;;;5.49;63.40;99981.28;6629945;26;34148;-88
2022/04/19 05:05:40;;;;;;;5.90;4.80;;;;;;;5.65;62.75;99976.09;6608935;26;32303;-88
2022/04/19 05:08:43;;;;;;;6.45;5.10;;;;;;;5.68;62.79;99982.97;6629833;26;34343;-89
2022/04/19 05:11:47;;;;;;;5.95;5.10;;;;;;;5.73;61.95;99982.47;6627136;26;35570;-89
2022/04/19 05:14:51;;;;;;;8.43;5.30;;;;;;;5.80;60.97;99980.88;6616100;26;33665;-88
2022/04/19 05:17:54;;;;;;;7.05;5.12;;;;;;;5.77;61.92;99979.34;6615276;26;33904;-88
2022/04/19 05:20:57;;;;;;;6.80;5.18;;;;;;;5.91;61.80;99973.44;6626385;26;32572;-88
2022/04/19 05:24:00;;;;;;;5.50;4.95;;;;;;;5.91;61.27;99977.94;6638709;26;33871;-88
2022/04/19 05:27:03;;;;;;;7.78;5.07;;;;;;;5.90;60.40;99969.06;6615936;26;33293;-88
2022/04/19 05:30:07;;;;;;;5.57;5.07;;;;;;;6.02;60.22;99980.34;6636114;26;34438;-88
2022/04/19 05:33:11;;;;;;;7.03;5.32;;;;;;;6.19;59.43;99977.78;6610950;26;32305;-88
2022/04/19 05:36:14;;;;;;;6.10;4.80;;;;;;;6.40;58.56;99975.53;6612745;26;34119;-88
2022/04/19 05:39:17;;;;;;;5.90;5.30;;;;;;;6.51;57.96;99979.75;6597493;26;33688;-88
2022/04/19 05:42:20;;;;;;;5.60;4.60;;;;;;;6.54;57.16;99974.91;6601997;26;34050;-88
2022/04/19 05:45:25;;;;;;;5.20;4.50;;;;;;;6.66;56.46;99971.94;6604256;26;33940;-90
2022/04/19 05:48:29;;;;;;;5.07;4.47;;;;;;;6.89;55.76;99977.53;6602998;26;34408;-89
2022/04/19 05:51:33;;;;;;;5.32;4.40;;;;;;;6.96;55.34;99973.19;6592849;27;135088;-89
2022/04/19 05:54:37;;;;;;;5.07;4.22;;;;;;;7.09;55.95;99983.44;6629609;26;35391;-89
2022/04/19 05:57:40;;;;;;;5.90;4.75;;;;;;;7.25;53.80;99988.78;6641115;26;33954;-89
2022/04/19 06:00:44;;;;;;;5.35;4.53;;;;;;;7.23;54.40;99986.28;6627988;26;34841;-89
2022/04/19 06:07:08;;;;;;;4.80;4.40;;;;;;;7.20;54.21;99991.16;6654254;26;35495;-91
2022/04/19 06:10:16;;;;;;;5.00;4.60;;;;;;;6.97;54.51;99989.09;6642749;26;33986;-90
2022/04/19 06:13:42;;;;;;;5.45;4.72;;;;;;;6.94;54.24;99989.44;6613190;26;33352;-88
2022/04/19 06:16:46;;;;;;;5.65;4.93;;;;;;;7.00;54.81;99990.59;6595433;26;33456;-89
2022/04/19 06:19:50;;;;;;;5.87;4.70;;;;;;;6.80;54.95;99988.22;6590319;27;33413;-88
2022/04/19 06:22:54;;;;;;;5.20;4.40;;;;;;;6.89;55.28;99989.06;6590723;26;32486;-89
2022/04/19 06:25:56;;;;;;;7.78;5.20;;;;;;;6.76;55.50;99984.19;6618535;26;33257;-88
2022/04/19 06:29:01;;;;;;;8.13;5.25;;;;;;;6.92;55.19;99987.91;6636317;26;34581;-88
2022/04/19 06:32:06;;;;;;;5.18;4.60;;;;;;;6.89;55.43;99977.53;6634216;26;35713;-88
2022/04/19 06:35:11;;;;;;;6.10;4.72;;;;;;;6.95;55.00;99975.03;6616378;26;32606;-88
2022/04/19 06:38:21;;;;;;;6.70;5.25;;;;;;;6.98;55.08;99972.03;6636658;26;33598;-88
2022/04/19 06:41:27;;;;;;;7.12;5.00;;;;;;;6.95;55.34;99983.06;6635947;26;33953;-88
2022/04/19 06:44:29;;;;;;;5.60;4.53;;;;;;;7.16;55.66;99976.41;6631021;26;34061;-88
2022/04/19 06:47:34;;;;;;;4.95;4.45;;;;;;;7.33;53.35;99977.25;6636087;26;34014;-88
2022/04/19 06:50:39;;;;;;;5.28;4.75;;;;;;;7.25;53.38;99983.44;6638306;26;34792;-88
2022/04/19 06:53:43;;;;;;;5.15;4.65;;;;;;;7.31;52.82;99985.44;6620809;26;32586;-88
2022/04/19 06:56:45;;;;;;;5.87;4.32;;;;;;;7.66;51.38;99981.62;6628813;26;34701;-88
2022/04/19 06:59:49;;;;;;;5.85;4.43;;;;;;;7.94;51.29;99979.38;6615845;26;31881;-88
2022/04/19 07:02:53;;;;;;;4.80;4.28;;;;;;;8.04;51.07;99981.03;6633606;26;33903;-88
2022/04/19 07:05:57;;;;;;;5.03;4.57;;;;;;;8.11;51.00;99979.38;6620537;26;34146;-88
2022/04/19 07:09:01;;;;;;;4.93;4.28;;;;;;;8.19;50.35;99973.97;6628508;26;33591;-89
2022/04/19 07:12:04;;;;;;;6.20;4.80;;;;;;;8.26;50.30;99972.28;6642828;26;35162;-88
2022/04/19 07:15:08;;;;;;;5.10;4.60;;;;;;;8.65;49.25;99965.25;6638487;26;34309;-88
2022/04/19 07:18:13;;;;;;;5.37;4.40;;;;;;;8.93;48.64;99969.13;6638217;26;35418;-89
2022/04/19 07:28:35;;;;;;;4.97;4.47;;;;;;;9.52;46.98;99961.31;6585327;26;33998;-88
2022/04/19 07:31:40;;;;;;;6.78;4.40;;;;;;;9.61;46.80;99959.38;6566346;27;32378;-88
2022/04/19 07:34:44;;;;;;;4.00;3.65;;;;;;;9.66;46.59;99964.22;6566491;27;32817;-88
2022/04/19 07:37:48;;;;;;;6.68;4.12;;;;;;;9.51;45.99;99954.28;6593662;26;34719;-88
2022/04/19 07:40:54;;;;;;;4.55;3.92;;;;;;;9.37;45.76;99960.44;6581508;26;33127;-87
2022/04/19 07:43:56;;;;;;;5.43;4.57;;;;;;;9.25;47.06;99959.19;6580259;26;32559;-88
2022/04/19 07:46:59;;;;;;;7.40;4.47;;;;;;;9.40;46.87;99952.00;6601770;26;33593;-88
2022/04/19 07:50:11;;;;;;;4.55;3.83;;;;;;;9.66;47.48;99956.16;6610580;27;33629;-89
2022/04/19 07:53:50;;;;;;;5.00;4.10;;;;;;;9.65;45.81;99958.03;6607287;26;35561;-87
2022/04/19 07:56:55;;;;;;;5.03;4.07;;;;;;;9.45;46.53;99954.16;6584961;26;33387;-88
2022/04/19 07:59:59;;;;;;;4.47;4.05;;;;;;;9.63;46.17;99949.28;6636441;26;34406;-88
2022/04/19 08:03:03;;;;;;;3.87;3.58;;;;;;;9.80;46.43;99957.19;6615981;26;33650;-89
2022/04/19 08:06:07;;;;;;;4.85;4.03;;;;;;;10.10;44.70;99961.59;6640316;26;34263;-89
2022/04/19 08:09:10;;;;;;;4.93;3.78;;;;;;;10.44;43.18;99950.28;6619351;26;34498;-88
2022/04/19 08:12:14;;;;;;;4.80;3.58;;;;;;;10.31;44.17;99947.41;6639734;26;33692;-88
2022/04/19 08:15:18;;;;;;;4.10;3.67;;;;;;;10.56;43.22;99958.72;6644969;26;34781;-88
2022/04/19 08:18:22;;;;;;;4.68;3.65;;;;;;;10.66;43.29;99948.47;6629628;26;34418;-88
2022/04/19 08:21:26;;;;;;;4.57;3.35;;;;;;;10.93;41.65;99956.84;6636005;26;33353;-89
2022/04/19 08:25:02;;;;;;;4.22;3.83;;;;;;;10.98;41.83;99962.50;6622750;26;33550;31
2022/04/19 08:28:07;;;;;;;3.58;3.28;;;;;;;11.23;41.18;99954.91;6553553;27;34637;-89
2022/04/19 08:31:11;;;;;;;3.85;3.30;;;;;;;11.63;40.63;99952.53;6554018;27;34043;-89
2022/04/19 08:34:14;;;;;;;5.62;3.37;;;;;;;11.79;40.16;99952.28;6554822;27;33855;-89
2022/04/19 08:37:20;;;;;;;3.62;3.33;;;;;;;11.65;40.01;99952.38;6554640;27;35006;-88
2022/04/19 08:40:25;;;;;;;3.30;3.00;;;;;;;11.46;40.06;99938.50;6555236;27;34370;-89
2022/04/19 08:43:29;;;;;;;4.97;3.20;;;;;;;11.22;40.60;99949.69;6535105;27;33437;-89
2022/04/19 08:46:32;;;;;;;3.72;3.30;;;;;;;11.16;40.33;99945.91;6558235;27;33812;-89
2022/04/19 08:49:41;;;;;;;3.35;2.92;;;;;;;11.40;39.95;99943.84;6545339;27;34184;-89
2022/04/19 08:52:45;;;;;;;4.50;3.40;;;;;;;11.90;40.57;99939.28;6574295;27;35411;-89
2022/04/19 08:59:09;;;;;;;3.47;3.17;;;;;;;11.89;39.34;99938.47;6570585;27;33824;-88
2022/04/19 09:02:24;;;;;;;3.67;3.30;;;;;;;11.93;39.23;99937.03;6563103;27;34190;-89
2022/04/19 09:05:28;;;;;;;4.97;3.08;;;;;;;11.57;40.00;99931.75;6567166;27;32479;-88
2022/04/19 09:08:31;;;;;;;3.53;3.22;;;;;;;11.80;40.11;99923.44;6586864;27;34806;-89
2022/04/19 09:11:34;;;;;;;4.72;3.20;;;;;;;12.12;38.63;99930.09;6565291;27;32484;-89
2022/04/19 09:14:55;;;;;;;5.03;3.33;;;;;;;12.16;38.19;99917.87;6572110;27;33027;-88
2022/04/19 09:18:00;;;;;;;4.10;2.75;;;;;;;12.59;38.68;99914.94;6573691;27;33045;-88
2022/04/19 09:21:05;;;;;;;3.92;2.78;;;;;;;12.96;38.07;99910.06;6569064;27;32992;-88
2022/04/19 09:24:19;;;;;;;4.75;3.20;;;;;;;13.07;37.81;99919.44;6568257;27;35033;-89
2022/04/19 09:27:32;;;;;;;3.53;3.00;;;;;;;12.77;37.34;99917.06;6633546;26;36460;-92
2022/04/19 09:30:35;;;;;;;3.42;2.80;;;;;;;13.19;37.20;99911.53;6638387;26;35182;-89
2022/04/19 09:33:58;;;;;;;3.03;2.80;;;;;;;13.22;37.50;99920.09;6632661;26;33699;-88
2022/04/19 09:37:10;;;;;;;3.37;3.05;;;;;;;13.95;35.87;99917.41;6615443;26;32765;-89
2022/04/19 09:40:13;;;;;;;4.70;2.83;;;;;;;12.81;37.72;99910.25;6636377;26;34229;-89
2022/04/19 09:43:21;;;;;;;3.03;2.62;;;;;;;12.90;36.95;99908.19;6615174;26;34769;-89
2022/04/19 09:46:24;;;;;;;3.50;3.20;;;;;;;12.97;36.73;99909.03;6616006;26;32510;-89
2022/04/19 09:49:41;;;;;;;3.10;2.80;;;;;;;12.74;37.61;99912.09;6615533;26;32846;-89
2022/04/19 09:52:48;;;;;;;4.65;3.22;;;;;;;13.00;37.88;99911.31;6614374;26;32284;-89
2022/04/19 09:55:55;;;;;;;3.30;3.00;;;;;;;13.49;36.70;99909.31;6635632;26;34742;-89
2022/04/19 09:59:02;;;;;;;3.75;3.20;;;;;;;13.30;36.18;99905.56;6639322;26;34018;-89
2022/04/19 10:08:51;;;;;;;3.17;2.90;;;;;;;13.61;35.95;99907.66;6633133;26;34755;-88
2022/04/19 10:11:54;;;;;;;3.50;2.80;;;;;;;13.48;35.42;99902.22;6633846;26;34868;-88
2022/04/19 10:14:59;;;;;;;3.42;3.08;;;;;;;13.58;36.64;99899.97;6614538;26;33880;-88
2022/04/19 10:18:06;;;;;;;4.07;2.90;;;;;;;13.79;35.71;99899.72;6613901;26;35563;-88
2022/04/19 10:21:13;;;;;;;3.40;3.05;;;;;;;13.77;35.46;99893.66;6634281;26;35207;-88
2022/04/19 10:24:17;;;;;;;5.22;2.97;;;;;;;13.97;35.56;99900.94;6634479;26;34105;-89
2022/04/19 10:27:29;;;;;;;3.67;2.97;;;;;;;14.04;34.48;99888.22;6634682;26;33936;-88
2022/04/19 10:30:34;;;;;;;4.75;2.90;;;;;;;13.95;35.20;99884.06;6613602;26;34144;-88
2022/04/19 10:33:44;;;;;;;3.12;2.83;;;;;;;13.89;34.97;99887.63;6615904;26;32654;-88
2022/04/19 10:36:48;;;;;;;2.87;2.67;;;;;;;13.88;36.32;99885.97;6615809;26;33593;-88
2022/04/19 10:40:03;;;;;;;4.05;3.22;;;;;;;14.16;35.08;99883.81;6613679;26;32588;-88
2022/04/19 10:43:13;;;;;;;5.90;3.10;;;;;;;14.29;34.73;99889.16;6635743;26;34683;-88
2022/04/19 10:46:16;;;;;;;;;;;;;;;14.59;34.76;99875.09;6639233;26;33573;-89
2022/04/19 10:49:23;;;;;;;3.62;3.20;;;;;;;14.24;34.90;99877.31;6634919;26;33933;-89
2022/04/19 10:52:43;;;;;;;4.12;3.00;;;;;;;14.06;36.12;99884.25;6638723;26;33578;-89
2022/04/19 10:56:01;;;;;;;4.32;3.20;;;;;;;13.61;36.24;99883.31;6634939;26;34471;-89
2022/04/19 10:59:20;;;;;;;3.65;3.28;;;;;;;13.07;36.01;99879.72;6615810;26;33575;-89
2022/04/19 11:02:36;;;;;;;3.87;3.25;;;;;;;13.42;35.62;99887.66;6636489;26;34824;-89
2022/04/19 11:05:43;;;;;;;3.67;3.25;;;;;;;13.67;35.38;99876.22;6640650;26;34948;-89
2022/04/19 11:08:49;;;;;;;3.70;3.40;;;;;;;13.88;34.99;99875.97;6640600;26;34207;-88
2022/04/19 11:11:54;;;;;;;3.47;3.17;;;;;;;13.69;35.25;99882.25;6616338;26;33952;-88
2022/04/19 11:15:21;;;;;;;3.53;3.20;;;;;;;13.37;36.06;99880.19;6639294;26;36758;31
2022/04/19 11:18:27;;;;;;;5.05;3.58;;;;;;;13.22;36.47;99878.69;6558123;27;34258;-89
2022/04/19 11:21:58;;;;;;;7.30;3.58;;;;;;;12.67;37.60;99881.53;6552266;26;33612;-87
2022/04/19 11:25:04;;;;;;;4.50;3.42;;;;;;;12.41;38.21;99880.41;6627142;26;33818;-88
2022/04/19 11:28:10;;;;;;;4.55;3.62;;;;;;;12.47;38.62;99884.16;6640664;26;33924;-87
2022/04/19 11:31:14;;;;;;;3.72;3.42;;;;;;;12.32;38.72;99883.50;6633711;26;35505;-88
2022/04/19 11:34:18;;;;;;;6.05;3.42;;;;;;;12.16;38.98;99880.09;6629298;26;33946;-88
2022/04/19 11:37:21;;;;;;;3.30;3.00;;;;;;;11.96;39.91;99892.63;6646277;26;35139;-88
2022/04/19 11:47:25;;;;;;;6.22;3.75;;;;;;;11.02;43.03;99901.00;6631320;26;33830;-88
2022/04/19 11:50:31;;;;;;;5.60;3.75;;;;;;;10.58;43.24;99902.81;6610159;26;34101;-87
2022/04/19 11:53:41;;;;;;;4.35;3.60;;;;;;;10.47;44.47;99902.47;6636638;26;34901;-87
2022/04/19 11:56:44;;;;;;;6.25;3.80;;;;;;;10.36;46.07;99910.03;6636862;26;35436;-87
2022/04/19 12:00:08;;;;;;;4.57;4.05;;;;;;;10.17;46.97;99905.19;6635943;26;35452;31
2022/04/19 12:03:31;;;;;;;5.30;4.43;;;;;;;10.00;50.27;99909.91;6503917;26;34309;-88
2022/04/19 12:06:37;;;;;;;6.00;4.40;;;;;;;9.90;50.60;99906.69;6600849;26;34170;-87
2022/04/19 12:09:40;;;;;;;6.55;5.10;;;;;;;9.98;50.12;99912.81;6580966;26;33655;-88
2022/04/19 12:12:43;;;;;;;4.40;4.00;;;;;;;10.01;48.93;99910.78;6581679;26;33091;-87
2022/04/19 12:15:46;;;;;;;4.60;4.20;;;;;;;10.15;48.57;99907.22;6608743;27;33663;-87
2022/04/19 12:18:52;;;;;;;4.65;4.15;;;;;;;10.07;49.34;99921.62;6589177;27;33551;-87
2022/04/19 12:21:56;;;;;;;7.28;4.95;;;;;;;9.90;47.84;99920.13;6592524;27;34043;-87
2022/04/19 12:24:59;;;;;;;5.10;4.60;;;;;;;9.92;49.18;99916.22;6611035;27;34019;-88
2022/04/19 12:28:02;;;;;;;4.82;4.25;;;;;;;9.82;49.45;99925.59;6634851;26;33718;-88
2022/04/19 12:31:05;;;;;;;6.80;4.97;;;;;;;9.87;49.54;99923.19;6616668;26;32519;-88
2022/04/19 12:34:09;;;;;;;6.47;5.35;;;;;;;9.89;49.06;99924.69;6620392;26;32729;-89
2022/04/19 12:37:19;;;;;;;6.37;5.43;;;;;;;9.75;50.10;99929.00;6636381;26;32424;-89
2022/04/19 12:40:28;;;;;;;;;;;;;;;9.68;51.99;99929.91;6629659;26;33982;-89
2022/04/19 12:43:46;;;;;;;8.65;5.55;;;;;;;9.37;54.20;99948.84;6655577;26;35066;-88
2022/04/19 12:46:51;;;;;;;7.32;5.82;;;;;;;9.16;56.60;99950.34;6638551;26;35318;-87
2022/04/19 12:49:55;;;;;;;7.75;5.90;;;;;;;9.01;59.57;99938.72;6656105;26;34899;-89
2022/04/19 12:52:58;;;;;;;6.40;5.80;;;;;;;8.96;58.47;99946.47;6623820;26;34005;-88
2022/04/19 12:56:10;;;;;;;7.47;5.90;;;;;;;8.99;59.10;99941.56;6616880;26;32833;-88
2022/04/19 12:59:14;;;;;;;6.80;5.90;;;;;;;8.90;58.66;99937.28;6637066;26;34030;-88
2022/04/19 13:02:19;;;;;;;6.50;5.80;;;;;;;9.03;58.28;99937.50;6599072;26;33267;-88
2022/04/19 13:12:16;;;;;;;6.72;5.65;;;;;;;8.87;59.10;99934.94;6616797;26;33642;-88
2022/04/19 13:12:19;;;;;;;7.93;6.00;;;;;;;9.47;59.77;99930.63;6589825;26;33306;-87
2022/04/19 13:15:23;;;;;;;5.75;5.12;;;;;;;9.66;59.27;99923.91;6610121;27;33962;-87
2022/04/19 13:18:25;;;;;;;7.37;5.87;;;;;;;9.86;54.40;99925.03;6608135;26;34648;-87
2022/04/19 13:21:28;;;;;;;6.43;5.32;;;;;;;10.20;54.56;99916.41;6608807;27;33896;-87
2022/04/19 13:24:41;;;;;;;7.07;5.00;;;;;;;10.73;53.03;99928.88;6610072;27;33647;-87
2022/04/19 13:27:44;;;;;;;5.65;4.87;;;;;;;11.12;50.99;99928.47;6590329;27;32730;-87
2022/04/19 13:30:48;;;;;;;6.20;4.50;;;;;;;11.61;50.75;99926.81;6599522;26;33894;-87
2022/04/19 13:33:51;;;;;;;6.93;4.40;;;;;;;11.83;48.87;99919.50;6619674;26;33672;-87
2022/04/19 13:36:58;;;;;;;6.03;4.53;;;;;;;12.00;47.52;99918.19;6621050;26;32736;-87
2022/04/19 13:40:01;;;;;;;5.47;4.47;;;;;;;12.10;47.80;99918.66;6616138;26;33431;-87
2022/04/19 13:43:04;;;;;;;4.37;3.58;;;;;;;11.89;48.27;99924.97;6620615;26;32270;-87
2022/04/19 13:46:07;;;;;;;5.95;4.37;;;;;;;12.45;47.64;99914.06;6637651;26;34283;-87
2022/04/19 13:49:12;;;;;;;5.70;4.12;;;;;;;12.58;46.53;99912.47;6633098;26;33521;-88
2022/04/19 13:52:16;;;;;;;6.10;4.70;;;;;;;12.99;45.33;99906.97;6610465;26;34224;-88
2022/04/19 13:55:22;;;;;;;7.20;4.00;;;;;;;14.48;44.69;99908.28;6610577;26;32841;-88
2022/04/19 13:58:25;;;;;;;4.82;3.83;;;;;;;16.37;38.84;99898.22;6616141;26;34734;-88
2022/04/19 14:01:30;;;;;;;4.75;3.85;;;;;;;17.33;37.02;99896.50;6601709;26;33364;-89
2022/04/19 14:04:33;;;;;;;4.43;4.03;;;;;;;17.08;36.30;99901.28;6609046;26;33595;-89
2022/04/19 14:07:37;;;;;;;4.65;3.87;;;;;;;15.37;38.80;99909.22;6607921;26;35062;-88
2022/04/19 14:10:40;;;;;;;6.30;3.83;;;;;;;13.29;43.39;99920.13;6607522;26;33825;-88
2022/04/19 14:13:42;;;;;;;6.68;4.78;;;;;;;11.39;51.66;99942.19;6615700;26;34288;-87
2022/04/19 14:16:46;;;;;;;5.55;4.80;;;;;;;9.89;65.20;99948.88;6635956;26;34892;-87
2022/04/19 14:19:51;;;;;;;7.03;5.30;;;;;;;8.81;70.71;99954.44;6615615;26;33948;-87
2022/04/19 14:22:54;;;;;;;8.65;6.97;;;;;;;7.77;77.78;99953.63;6643188;26;34765;-87
2022/04/19 14:25:56;;;;;;;8.95;7.35;;;;;;;6.90;84.94;99958.62;6654585;26;35321;-88
2022/04/19 14:35:43;;;;;;;13.27;9.38;;;;;;;6.47;96.78;99965.06;6617031;26;33514;-88
2022/04/19 14:38:46;;;;;;;10.75;8.68;;;;;;;6.44;97.98;99962.69;6637190;26;34413;-88
2022/04/19 14:41:49;;;;;;;11.65;8.75;;;;;;;6.40;98.28;99964.84;6616038;26;33424;-88
2022/04/19 14:44:52;;;;;;;10.70;8.18;;;;;;;6.43;96.42;99959.16;6614587;26;32741;-87
2022/04/19 14:47:55;;;;;;;9.68;7.37;;;;;;;6.37;93.26;99963.31;6633651;26;34519;-88
2022/04/19 14:54:20;;;;;;;8.90;7.60;;;;;;;6.02;93.36;99968.81;6634527;26;34807;-88
2022/04/19 14:57:24;;;;;;;8.32;7.53;;;;;;;6.04;92.23;99972.19;6633695;26;33905;-88
2022/04/19 15:00:27;;;;;;;8.82;7.15;;;;;;;6.11;94.68;99975.88;6611844;26;33283;-88
2022/04/19 15:03:30;;;;;;;11.05;9.00;;;;;;;6.16;94.68;99978.09;6633506;26;33743;-88
2022/04/19 15:06:33;;;;;;;9.63;7.82;;;;;;;6.40;96.58;99980.03;6633981;26;34855;-88
2022/04/19 15:09:36;;;;;;;11.50;8.85;;;;;;;6.42;91.13;99988.75;6613689;26;33366;-88
2022/04/19 15:12:39;;;;;;;9.70;8.57;;;;;;;6.45;95.39;99983.06;6633365;26;33535;-88
2022/04/19 15:15:42;;;;;;;11.95;8.60;;;;;;;6.50;96.40;99992.31;6614002;26;33331;-88
2022/04/19 15:18:45;;;;;;;10.15;8.35;;;;;;;6.46;94.36;99992.75;6622973;26;32647;-88
2022/04/19 15:21:48;;;;;;;11.90;9.10;;;;;;;6.44;92.08;99992.13;6633805;26;33639;-88
2022/04/19 15:24:52;;;;;;;11.48;8.77;;;;;;;6.30;94.06;100002.41;6635783;26;34778;-88
2022/04/19 15:27:55;;;;;;;11.48;9.43;;;;;;;6.11;92.49;100000.81;6640640;26;35303;-87
2022/04/19 15:31:02;;;;;;;11.82;9.07;;;;;;;6.19;98.11;100004.50;6634606;26;34122;-88
2022/04/19 15:34:05;;;;;;;10.57;8.35;;;;;;;6.21;98.79;100002.53;6615670;26;32404;-88
2022/04/19 15:37:10;;;;;;;9.75;7.72;;;;;;;6.24;98.19;100003.03;6619793;26;33551;-88
2022/04/19 15:40:14;;;;;;;8.65;7.12;;;;;;;6.17;95.37;100009.16;6625020;26;33020;-88
2022/04/19 15:43:18;;;;;;;9.68;8.25;;;;;;;6.09;93.12;100000.13;6624924;26;34309;-88
2022/04/19 15:46:20;;;;;;;9.43;8.13;;;;;;;6.07;96.38;100009.28;6592224;26;33024;-89
2022/04/19 15:58:08;;;;;;;9.05;7.35;;;;;;;5.89;95.41;99987.94;6604836;26;20083;-89
